createdAt,value
2022-09-12T00:00:39.060Z,99.5
2022-09-12T00:02:15.353Z,99.5
2022-09-12T00:03:51.683Z,99.5
2022-09-12T00:05:28.012Z,99.5
2022-09-12T00:07:04.352Z,99.5
2022-09-12T00:08:40.681Z,99.5
2022-09-12T00:10:17.012Z,99.5
2022-09-12T00:11:53.335Z,99.5
2022-09-12T00:13:28.687Z,99.5
2022-09-12T00:15:05.015Z,99.5
2022-09-12T00:16:41.342Z,99.5
2022-09-12T00:18:17.683Z,99.5
2022-09-12T00:19:54.010Z,99.5
2022-09-12T00:21:30.342Z,99.5
2022-09-12T00:23:06.667Z,99.5
2022-09-12T00:24:43.011Z,99.5
2022-09-12T00:26:19.391Z,99.5
2022-09-12T00:27:55.673Z,99.5
2022-09-12T00:29:31.999Z,99.5
2022-09-12T00:31:08.327Z,99.5
2022-09-12T00:32:44.666Z,99.5
2022-09-12T00:34:20.008Z,99.5
2022-09-12T00:35:56.332Z,99.5
2022-09-12T00:37:32.674Z,99.5
2022-09-12T00:39:09.006Z,99.5
2022-09-12T00:40:45.339Z,99.5
2022-09-12T00:42:21.663Z,99.5
2022-09-12T00:43:58.027Z,99.5
2022-09-12T00:45:34.332Z,99.5
2022-09-12T00:47:10.658Z,99.5
2022-09-12T00:48:46.994Z,99.5
2022-09-12T00:50:23.321Z,99.5
2022-09-12T00:51:59.643Z,99.5
2022-09-12T00:53:35.977Z,99.5
2022-09-12T00:55:12.317Z,99.5
2022-09-12T00:56:47.670Z,99.5
2022-09-12T00:58:23.997Z,99.5
2022-09-12T01:00:00.321Z,99.5
2022-09-12T01:01:36.690Z,99.5
2022-09-12T01:03:13.037Z,99.5
2022-09-12T01:04:49.330Z,99.5
2022-09-12T01:06:25.641Z,99.5
2022-09-12T01:08:01.972Z,99.5
2022-09-12T01:09:38.307Z,99.5
2022-09-12T01:11:14.642Z,99.5
2022-09-12T01:12:50.971Z,99.5
2022-09-12T01:14:27.327Z,99.5
2022-09-12T01:16:03.635Z,99.5
2022-09-12T01:17:38.977Z,99.5
2022-09-12T01:19:15.344Z,99.5
2022-09-12T01:20:51.635Z,99.5
2022-09-12T01:22:27.967Z,99.5
2022-09-12T01:24:04.299Z,99.5
2022-09-12T01:25:40.646Z,99.5
2022-09-12T01:27:16.964Z,99.5
2022-09-12T01:28:53.289Z,99.5
2022-09-12T01:30:29.625Z,99.5
2022-09-12T01:32:05.952Z,99.5
2022-09-12T01:33:42.302Z,99.5
2022-09-12T01:35:18.657Z,99.5
2022-09-12T01:36:54.953Z,99.5
2022-09-12T01:38:31.329Z,99.5
2022-09-12T01:40:06.627Z,99.5
2022-09-12T01:41:42.965Z,99.5
2022-09-12T01:43:19.282Z,99.5
2022-09-12T01:44:55.648Z,99.5
2022-09-12T01:46:31.956Z,99.5
2022-09-12T01:48:08.302Z,99.5
2022-09-12T01:49:44.645Z,99.5
2022-09-12T01:51:20.945Z,99.5
2022-09-12T01:52:57.277Z,99.5
2022-09-12T01:54:33.605Z,99.5
2022-09-12T01:56:09.929Z,99.5
2022-09-12T01:57:46.262Z,99.5
2022-09-12T01:59:22.595Z,99.5
2022-09-12T02:00:57.954Z,99.5
2022-09-12T02:02:34.302Z,99.5
2022-09-12T02:04:10.669Z,99.5
2022-09-12T02:05:46.951Z,99.5
2022-09-12T02:07:23.272Z,99.5
2022-09-12T02:08:59.626Z,99.5
2022-09-12T02:10:35.925Z,99.5
2022-09-12T02:12:12.259Z,99.5
2022-09-12T02:13:48.591Z,99.5
2022-09-12T02:15:24.926Z,99.5
2022-09-12T02:17:01.258Z,99.5
2022-09-12T02:18:37.586Z,99.5
2022-09-12T02:20:13.930Z,99.5
2022-09-12T02:21:50.251Z,99.5
2022-09-12T02:23:25.596Z,99.5
2022-09-12T02:25:00.956Z,99.5
2022-09-12T02:26:37.289Z,99.5
2022-09-12T02:28:12.632Z,99.5
2022-09-12T02:29:48.964Z,99.5
2022-09-12T02:31:25.294Z,99.5
2022-09-12T02:33:01.629Z,99.5
2022-09-12T02:34:37.948Z,99.5
2022-09-12T02:36:14.287Z,99.5
2022-09-12T02:37:50.617Z,99.5
2022-09-12T02:39:26.945Z,99.5
2022-09-12T02:41:02.305Z,99.5
2022-09-12T02:42:37.652Z,99.5
2022-09-12T02:44:14.006Z,99.5
2022-09-12T02:45:50.312Z,99.5
2022-09-12T02:47:26.651Z,99.5
2022-09-12T02:49:02.976Z,99.5
2022-09-12T02:50:39.304Z,99.5
2022-09-12T02:52:15.639Z,99.5
2022-09-12T02:53:51.973Z,99.5
2022-09-12T02:55:28.293Z,99.5
2022-09-12T02:57:04.657Z,99.5
2022-09-12T02:58:40.963Z,99.5
2022-09-12T03:00:17.293Z,99.5
2022-09-12T03:01:53.627Z,99.5
2022-09-12T03:03:28.973Z,99.5
2022-09-12T03:05:05.313Z,99.5
2022-09-12T03:06:41.635Z,99.5
2022-09-12T03:08:17.966Z,99.5
2022-09-12T03:09:54.294Z,99.5
2022-09-12T03:11:30.627Z,99.5
2022-09-12T03:13:06.962Z,99.5
2022-09-12T03:14:43.292Z,99.5
2022-09-12T03:16:19.613Z,99.5
2022-09-12T03:17:55.947Z,99.5
2022-09-12T03:19:32.279Z,99.5
2022-09-12T03:21:08.617Z,99.5
2022-09-12T03:22:44.945Z,99.5
2022-09-12T03:24:21.269Z,99.5
2022-09-12T03:25:56.623Z,99.5
2022-09-12T03:27:32.952Z,99.5
2022-09-12T03:29:09.279Z,99.5
2022-09-12T03:30:45.607Z,99.5
2022-09-12T03:32:21.948Z,99.5
2022-09-12T03:33:58.275Z,99.5
2022-09-12T03:35:34.604Z,99.5
2022-09-12T03:37:10.949Z,99.5
2022-09-12T03:38:47.263Z,99.5
2022-09-12T03:40:23.632Z,99.5
2022-09-12T03:41:59.931Z,99.5
2022-09-12T03:43:36.270Z,99.5
2022-09-12T03:45:12.593Z,99.5
2022-09-12T03:46:47.937Z,99.5
2022-09-12T03:48:24.265Z,99.5
2022-09-12T03:50:00.598Z,99.5
2022-09-12T03:51:36.936Z,99.5
2022-09-12T03:53:13.260Z,99.5
2022-09-12T03:54:49.592Z,99.5
2022-09-12T03:56:25.930Z,99.5
2022-09-12T03:58:02.249Z,99.5
2022-09-12T03:59:38.586Z,99.5
2022-09-12T04:01:15.020Z,99.5
2022-09-12T04:02:51.242Z,99.5
2022-09-12T04:04:27.578Z,99.5
2022-09-12T04:06:03.906Z,99.5
2022-09-12T04:07:39.253Z,99.5
2022-09-12T04:09:15.579Z,99.5
2022-09-12T04:10:51.918Z,99.5
2022-09-12T04:12:28.269Z,99.5
2022-09-12T04:14:04.575Z,99.5
2022-09-12T04:15:40.930Z,99.5
2022-09-12T04:17:17.267Z,99.5
2022-09-12T04:18:53.574Z,99.5
2022-09-12T04:20:29.900Z,99.5
2022-09-12T04:22:06.233Z,99.5
2022-09-12T04:23:42.557Z,99.5
2022-09-12T04:25:18.903Z,99.5
2022-09-12T04:26:55.232Z,99.5
2022-09-12T04:28:30.603Z,99.5
2022-09-12T04:30:06.963Z,99.5
2022-09-12T04:31:43.245Z,99.5
2022-09-12T04:33:19.600Z,99.5
2022-09-12T04:34:55.892Z,99.5
2022-09-12T04:36:32.230Z,99.5
2022-09-12T04:38:08.566Z,99.5
2022-09-12T04:39:44.891Z,99.5
2022-09-12T04:41:21.220Z,99.5
2022-09-12T04:42:57.546Z,99.5
2022-09-12T04:44:33.909Z,99.5
2022-09-12T04:46:10.226Z,99.5
2022-09-12T04:47:46.563Z,99.5
2022-09-12T04:49:21.899Z,99.5
2022-09-12T04:50:58.272Z,99.5
2022-09-12T04:52:34.603Z,99.5
2022-09-12T04:54:10.891Z,99.5
2022-09-12T04:55:47.221Z,99.5
2022-09-12T04:57:23.552Z,99.5
2022-09-12T04:58:59.878Z,99.5
2022-09-12T05:00:36.216Z,99.5
2022-09-12T05:02:12.539Z,99.5
2022-09-12T05:03:48.894Z,99.5
2022-09-12T05:05:25.207Z,99.5
2022-09-12T05:07:01.535Z,99.5
2022-09-12T05:08:37.881Z,99.5
2022-09-12T05:10:14.201Z,99.5
2022-09-12T05:11:49.563Z,99.5
2022-09-12T05:13:25.888Z,99.5
2022-09-12T05:15:02.299Z,99.5
2022-09-12T05:16:38.549Z,99.5
2022-09-12T05:18:14.917Z,99.5
2022-09-12T05:19:51.211Z,99.5
2022-09-12T05:21:26.588Z,99
2022-09-12T05:23:01.910Z,99
2022-09-12T05:24:38.424Z,98.5
2022-09-12T05:26:14.672Z,98
2022-09-12T05:27:49.926Z,98
2022-09-12T05:29:26.294Z,97.5
2022-09-12T05:31:02.599Z,97
2022-09-12T05:32:37.966Z,96
2022-09-12T05:34:14.307Z,95.5
2022-09-12T05:35:50.610Z,95.5
2022-09-12T05:37:26.925Z,95
2022-09-12T05:39:03.279Z,94.5
2022-09-12T05:40:39.604Z,94.5
2022-09-12T05:42:15.931Z,94
2022-09-12T05:43:52.260Z,94.5
2022-09-12T05:45:28.604Z,94.5
2022-09-12T05:47:04.918Z,93.5
2022-09-12T05:48:41.256Z,93.5
2022-09-12T05:50:17.585Z,93
2022-09-12T05:51:53.912Z,93
2022-09-12T05:53:29.259Z,92.5
2022-09-12T05:55:05.588Z,92.5
2022-09-12T05:56:41.915Z,92.5
2022-09-12T05:58:18.259Z,92
2022-09-12T05:59:54.583Z,92
2022-09-12T06:01:29.946Z,91.5
2022-09-12T06:03:05.317Z,92
2022-09-12T06:04:41.629Z,92.5
2022-09-12T06:06:17.948Z,92
2022-09-12T06:07:54.295Z,91.5
2022-09-12T06:09:29.638Z,91
2022-09-12T06:11:04.989Z,90.5
2022-09-12T06:12:41.323Z,90.5
2022-09-12T06:14:17.654Z,89.5
2022-09-12T06:15:53.974Z,89.5
2022-09-12T06:17:30.326Z,89
2022-09-12T06:19:06.650Z,88.5
2022-09-12T06:20:42.974Z,88.5
2022-09-12T06:22:19.296Z,88.5
2022-09-12T06:23:55.630Z,89
2022-09-12T06:25:32.007Z,89
2022-09-12T06:27:08.328Z,88
2022-09-12T06:28:44.617Z,88
2022-09-12T06:30:20.954Z,87
2022-09-12T06:31:56.296Z,87.5
2022-09-12T06:33:32.625Z,86.5
2022-09-12T06:35:08.957Z,87
2022-09-12T06:36:45.299Z,88
2022-09-12T06:38:21.620Z,87.5
2022-09-12T06:39:57.947Z,87.5
2022-09-12T06:41:34.275Z,88
2022-09-12T06:43:10.605Z,89.5
2022-09-12T06:44:46.949Z,89.5
2022-09-12T06:46:23.276Z,90
2022-09-12T06:47:59.603Z,90.5
2022-09-12T06:49:35.929Z,90.5
2022-09-12T06:51:12.280Z,90
2022-09-12T06:52:47.633Z,90
2022-09-12T06:54:23.952Z,90
2022-09-12T06:56:00.298Z,90
2022-09-12T06:57:36.619Z,90
2022-09-12T06:59:12.936Z,90.5
2022-09-12T07:00:49.266Z,90.5
2022-09-12T07:02:25.627Z,90.5
2022-09-12T07:04:01.935Z,90.5
2022-09-12T07:05:38.258Z,90.5
2022-09-12T07:07:14.591Z,90.5
2022-09-12T07:08:50.927Z,90
2022-09-12T07:10:27.249Z,90
2022-09-12T07:12:03.593Z,90
2022-09-12T07:13:38.928Z,89.5
2022-09-12T07:15:15.259Z,90
2022-09-12T07:16:51.584Z,89
2022-09-12T07:18:27.921Z,89.5
2022-09-12T07:20:04.244Z,89.5
2022-09-12T07:21:40.609Z,89.5
2022-09-12T07:23:16.909Z,89.5
2022-09-12T07:24:53.247Z,89.5
2022-09-12T07:26:29.574Z,89.5
2022-09-12T07:28:05.912Z,89.5
2022-09-12T07:29:42.231Z,90
2022-09-12T07:31:18.562Z,89.5
2022-09-12T07:32:54.905Z,89.5
2022-09-12T07:34:30.292Z,90
2022-09-12T07:36:06.579Z,90.5
2022-09-12T07:37:42.904Z,91
2022-09-12T07:39:19.234Z,91
2022-09-12T07:40:55.574Z,91
2022-09-12T07:42:31.908Z,91
2022-09-12T07:44:08.229Z,91.5
2022-09-12T07:45:44.562Z,91.5
2022-09-12T07:47:20.893Z,91
2022-09-12T07:48:57.227Z,91
2022-09-12T07:50:33.550Z,91
2022-09-12T07:52:09.925Z,90.5
2022-09-12T07:53:46.220Z,91
2022-09-12T07:55:22.608Z,91
2022-09-12T07:56:57.890Z,90.5
2022-09-12T07:58:34.232Z,90.5
2022-09-12T08:00:10.571Z,90.5
2022-09-12T08:01:46.896Z,91.5
2022-09-12T08:03:23.218Z,91
2022-09-12T08:04:59.553Z,90
2022-09-12T08:06:35.879Z,90.5
2022-09-12T08:08:12.211Z,90.5
2022-09-12T08:09:48.561Z,90.5
2022-09-12T08:11:24.876Z,91
2022-09-12T08:13:01.204Z,91
2022-09-12T08:14:37.537Z,91
2022-09-12T08:16:13.892Z,91
2022-09-12T08:17:49.230Z,91
2022-09-12T08:19:24.569Z,90.5
2022-09-12T08:21:00.902Z,90.5
2022-09-12T08:22:37.225Z,90
2022-09-12T08:24:13.684Z,90
2022-09-12T08:25:49.893Z,89
2022-09-12T08:27:26.224Z,89
2022-09-12T08:29:02.604Z,87.5
2022-09-12T08:30:38.888Z,87
2022-09-12T08:32:15.212Z,87
2022-09-12T08:33:50.581Z,87.5
2022-09-12T08:35:25.936Z,87.5
2022-09-12T08:37:02.249Z,87.5
2022-09-12T08:38:38.589Z,88
2022-09-12T08:40:14.919Z,88.5
2022-09-12T08:41:51.335Z,87
2022-09-12T08:43:27.590Z,86
2022-09-12T08:45:03.967Z,87
2022-09-12T08:46:40.348Z,85.5
2022-09-12T08:48:16.607Z,85.5
2022-09-12T08:49:52.922Z,85.5
2022-09-12T08:51:29.222Z,85.5
2022-09-12T08:53:05.571Z,86
2022-09-12T08:54:41.942Z,86
2022-09-12T08:56:18.259Z,86
2022-09-12T08:57:53.572Z,85.5
2022-09-12T08:59:29.896Z,85.5
2022-09-12T09:01:06.331Z,85.5
2022-09-12T09:02:42.556Z,82.5
2022-09-12T09:04:18.885Z,82.5
2022-09-12T09:05:55.222Z,81.5
2022-09-12T09:07:31.556Z,81.5
2022-09-12T09:09:07.903Z,80.5
2022-09-12T09:10:44.221Z,81
2022-09-12T09:12:20.544Z,80
2022-09-12T09:13:56.909Z,80.5
2022-09-12T09:15:33.241Z,80
2022-09-12T09:17:09.542Z,80.5
2022-09-12T09:18:44.899Z,80
2022-09-12T09:20:21.217Z,78.5
2022-09-12T09:21:57.640Z,79
2022-09-12T09:23:33.910Z,78.5
2022-09-12T09:25:10.204Z,79
2022-09-12T09:26:46.540Z,78
2022-09-12T09:28:22.875Z,78
2022-09-12T09:29:59.220Z,77
2022-09-12T09:31:35.524Z,78
2022-09-12T09:33:11.859Z,77.5
2022-09-12T09:34:48.190Z,76.5
2022-09-12T09:36:24.520Z,76
2022-09-12T09:38:00.859Z,75.5
2022-09-12T09:39:36.202Z,75.5
2022-09-12T09:41:12.577Z,74.5
2022-09-12T09:42:48.860Z,76
2022-09-12T09:44:25.197Z,76
2022-09-12T09:46:01.528Z,76.5
2022-09-12T09:47:37.904Z,76.5
2022-09-12T09:49:14.185Z,77
2022-09-12T09:50:50.511Z,76.5
2022-09-12T09:52:26.862Z,77
2022-09-12T09:54:03.226Z,76
2022-09-12T09:55:39.511Z,75
2022-09-12T09:57:15.840Z,74
2022-09-12T09:58:52.165Z,73
2022-09-12T10:00:27.523Z,74
2022-09-12T10:02:03.847Z,73
2022-09-12T10:03:40.210Z,71.5
2022-09-12T10:05:16.654Z,70.5
2022-09-12T10:06:52.840Z,70.5
2022-09-12T10:08:29.168Z,69.5
2022-09-12T10:10:05.498Z,69.5
2022-09-12T10:11:41.836Z,69.5
2022-09-12T10:13:18.159Z,70
2022-09-12T10:14:54.488Z,70.5
2022-09-12T10:16:30.825Z,71
2022-09-12T10:18:07.161Z,71.5
2022-09-12T10:19:43.534Z,72
2022-09-12T10:21:18.899Z,70
2022-09-12T10:22:55.214Z,68
2022-09-12T10:24:31.489Z,66.5
2022-09-12T10:26:07.825Z,67
2022-09-12T10:27:44.157Z,67.5
2022-09-12T10:29:20.484Z,65.5
2022-09-12T10:30:56.817Z,65
2022-09-12T10:32:33.238Z,66
2022-09-12T10:34:09.487Z,64.5
2022-09-12T10:35:45.804Z,63.5
2022-09-12T10:37:21.162Z,63
2022-09-12T10:38:57.493Z,64
2022-09-12T10:40:33.829Z,63.5
2022-09-12T10:42:10.146Z,63.5
2022-09-12T10:43:46.486Z,63.5
2022-09-12T10:45:22.816Z,63
2022-09-12T10:46:59.145Z,62.5
2022-09-12T10:48:35.469Z,62.5
2022-09-12T10:50:11.807Z,63.5
2022-09-12T10:51:48.141Z,63.5
2022-09-12T10:53:24.511Z,63.5
2022-09-12T10:55:00.805Z,62
2022-09-12T10:56:37.125Z,63.5
2022-09-12T10:58:12.477Z,62.5
2022-09-12T10:59:48.819Z,62
2022-09-12T11:01:25.132Z,61.5
2022-09-12T11:03:01.472Z,61
2022-09-12T11:04:37.814Z,60.5
2022-09-12T11:06:14.140Z,61.5
2022-09-12T11:07:50.461Z,61
2022-09-12T11:09:26.815Z,61
2022-09-12T11:11:03.208Z,62
2022-09-12T11:12:39.602Z,62
2022-09-12T11:14:14.934Z,62
2022-09-12T11:15:51.143Z,62.5
2022-09-12T11:17:27.473Z,62.5
2022-09-12T11:19:02.823Z,62.5
2022-09-12T11:20:39.159Z,62.5
2022-09-12T11:22:15.506Z,62
2022-09-12T11:23:51.819Z,63
2022-09-12T11:25:28.145Z,62
2022-09-12T11:27:04.466Z,63.5
2022-09-12T11:28:39.902Z,62
2022-09-12T11:30:15.183Z,62
2022-09-12T11:31:51.511Z,62.5
2022-09-12T11:33:27.911Z,62
2022-09-12T11:35:04.206Z,61.5
2022-09-12T11:36:40.509Z,61
2022-09-12T11:38:16.832Z,61.5
2022-09-12T11:39:53.169Z,61.5
2022-09-12T11:41:29.646Z,62.5
2022-09-12T11:43:05.830Z,63.5
2022-09-12T11:44:42.158Z,63
2022-09-12T11:46:18.494Z,63.5
2022-09-12T11:47:54.820Z,63
2022-09-12T11:49:31.148Z,62.5
2022-09-12T11:51:06.495Z,62.5
2022-09-12T11:52:42.830Z,62
2022-09-12T11:54:19.155Z,61
2022-09-12T11:55:55.484Z,60
2022-09-12T11:57:31.828Z,60.5
2022-09-12T11:59:08.152Z,60.5
2022-09-12T12:00:44.499Z,61
2022-09-12T12:02:20.870Z,60.5
2022-09-12T12:03:57.150Z,61
2022-09-12T12:05:33.469Z,61.5
2022-09-12T12:07:09.833Z,62
2022-09-12T12:08:46.135Z,62.5
2022-09-12T12:10:22.464Z,60.5
2022-09-12T12:11:58.790Z,60
2022-09-12T12:13:34.139Z,61
2022-09-12T12:15:10.494Z,59.5
2022-09-12T12:16:46.809Z,59
2022-09-12T12:18:23.142Z,58.5
2022-09-12T12:19:59.464Z,57.5
2022-09-12T12:21:35.793Z,58
2022-09-12T12:23:12.127Z,58
2022-09-12T12:24:48.459Z,58.5
2022-09-12T12:26:24.785Z,57
2022-09-12T12:28:01.116Z,57.5
2022-09-12T12:29:37.447Z,58.5
2022-09-12T12:31:13.777Z,60
2022-09-12T12:32:50.112Z,57
2022-09-12T12:34:25.459Z,57
2022-09-12T12:36:01.789Z,57.5
2022-09-12T12:37:38.121Z,57.5
2022-09-12T12:39:14.453Z,56.5
2022-09-12T12:40:50.787Z,58
2022-09-12T12:42:27.107Z,58.5
2022-09-12T12:44:03.438Z,58
2022-09-12T12:45:39.783Z,55.5
2022-09-12T12:47:16.098Z,56.5
2022-09-12T12:48:52.441Z,57
2022-09-12T12:50:28.760Z,56.5
2022-09-12T12:52:05.094Z,57.5
2022-09-12T12:53:41.432Z,58
2022-09-12T12:55:16.774Z,58
2022-09-12T12:56:53.112Z,57
2022-09-12T12:58:29.440Z,58
2022-09-12T13:00:05.765Z,56.5
2022-09-12T13:01:42.093Z,57
2022-09-12T13:03:18.431Z,57
2022-09-12T13:04:54.771Z,54.5
2022-09-12T13:06:31.095Z,55.5
2022-09-12T13:08:07.430Z,55
2022-09-12T13:09:43.752Z,54.5
2022-09-12T13:11:20.082Z,53.5
2022-09-12T13:12:56.408Z,55
2022-09-12T13:14:32.741Z,56
2022-09-12T13:16:09.079Z,56
2022-09-12T13:17:44.426Z,55.5
2022-09-12T13:19:20.751Z,55.5
2022-09-12T13:20:57.085Z,55
2022-09-12T13:22:33.414Z,55
2022-09-12T13:24:09.743Z,54.5
2022-09-12T13:25:46.071Z,55.5
2022-09-12T13:27:22.409Z,55
2022-09-12T13:28:58.737Z,55
2022-09-12T13:30:35.219Z,54
2022-09-12T13:32:11.428Z,54.5
2022-09-12T13:33:47.726Z,55
2022-09-12T13:35:24.056Z,54
2022-09-12T13:37:00.390Z,54.5
2022-09-12T13:38:36.723Z,54.5
2022-09-12T13:40:13.063Z,54
2022-09-12T13:41:49.389Z,53.5
2022-09-12T13:43:24.729Z,54.5
2022-09-12T13:45:01.072Z,53.5
2022-09-12T13:46:37.383Z,53.5
2022-09-12T13:48:13.730Z,54
2022-09-12T13:49:50.054Z,54.5
2022-09-12T13:51:26.382Z,55
2022-09-12T13:53:02.715Z,55.5
2022-09-12T13:54:38.070Z,54.5
2022-09-12T13:56:13.433Z,55
2022-09-12T13:57:49.749Z,54
2022-09-12T13:59:26.078Z,55
2022-09-12T14:01:02.411Z,55.5
2022-09-12T14:02:38.775Z,54.5
2022-09-12T14:04:15.076Z,54
2022-09-12T14:05:51.445Z,53.5
2022-09-12T14:07:27.742Z,53.5
2022-09-12T14:09:04.063Z,54
2022-09-12T14:10:40.402Z,53.5
2022-09-12T14:12:16.746Z,54
2022-09-12T14:13:53.920Z,54.5
2022-09-12T14:15:29.435Z,55
2022-09-12T14:17:05.718Z,54.5
2022-09-12T14:18:42.053Z,55
2022-09-12T14:20:18.380Z,55
2022-09-12T14:21:54.731Z,55
2022-09-12T14:23:31.073Z,55
2022-09-12T14:25:06.397Z,56
2022-09-12T14:26:41.775Z,56
2022-09-12T14:28:18.085Z,55
2022-09-12T14:29:54.407Z,55.5
2022-09-12T14:31:30.734Z,54.5
2022-09-12T14:33:07.123Z,55.5
2022-09-12T14:34:43.400Z,54.5
2022-09-12T14:36:19.730Z,54.5
2022-09-12T14:37:56.083Z,54
2022-09-12T14:39:32.396Z,54
2022-09-12T14:41:08.726Z,52
2022-09-12T14:42:45.052Z,53.5
2022-09-12T14:44:21.382Z,54
2022-09-12T14:45:57.721Z,54.5
2022-09-12T14:47:34.092Z,53.5
2022-09-12T14:49:10.400Z,54
2022-09-12T14:50:46.706Z,53
2022-09-12T14:52:22.070Z,53.5
2022-09-12T14:53:58.390Z,55
2022-09-12T14:55:34.721Z,54
2022-09-12T14:57:11.057Z,54
2022-09-12T14:58:47.377Z,55.5
2022-09-12T15:00:23.718Z,54
2022-09-12T15:02:00.118Z,54.5
2022-09-12T15:03:36.431Z,55
2022-09-12T15:05:12.707Z,54.5
2022-09-12T15:06:49.089Z,54.5
2022-09-12T15:08:25.359Z,54
2022-09-12T15:10:01.691Z,54
2022-09-12T15:11:38.053Z,54.5
2022-09-12T15:13:13.426Z,54
2022-09-12T15:14:49.708Z,55
2022-09-12T15:16:26.054Z,53.5
2022-09-12T15:18:02.367Z,53.5
2022-09-12T15:19:38.692Z,53.5
2022-09-12T15:21:15.095Z,53.5
2022-09-12T15:22:51.362Z,53
2022-09-12T15:24:27.689Z,53.5
2022-09-12T15:26:04.015Z,53
2022-09-12T15:27:40.352Z,54
2022-09-12T15:29:16.686Z,52.5
2022-09-12T15:30:53.023Z,53
2022-09-12T15:32:29.347Z,53.5
2022-09-12T15:34:05.684Z,53.5
2022-09-12T15:35:41.018Z,53
2022-09-12T15:37:17.349Z,53
2022-09-12T15:38:53.687Z,53
2022-09-12T15:40:30.016Z,53
2022-09-12T15:42:06.353Z,53.5
2022-09-12T15:43:42.675Z,53
2022-09-12T15:45:19.005Z,52.5
2022-09-12T15:46:55.381Z,53
2022-09-12T15:48:31.661Z,53
2022-09-12T15:50:07.997Z,53.5
2022-09-12T15:51:44.327Z,53
2022-09-12T15:53:20.676Z,54.5
2022-09-12T15:54:56.987Z,53
2022-09-12T15:58:08.694Z,55
2022-09-12T15:59:44.997Z,54.5
2022-09-12T16:01:20.356Z,54.5
2022-09-12T16:02:56.676Z,54
2022-09-12T16:04:33.011Z,54.5
2022-09-12T16:06:09.355Z,55.5
2022-09-12T16:07:45.679Z,55.5
2022-09-12T16:09:22.000Z,55
2022-09-12T16:10:58.339Z,55.5
2022-09-12T16:12:34.677Z,56
2022-09-12T16:14:10.995Z,56.5
2022-09-12T16:15:47.328Z,55.5
2022-09-12T16:17:23.662Z,56
2022-09-12T16:18:59.993Z,55.5
2022-09-12T16:20:36.325Z,55
2022-09-12T16:22:11.692Z,54.5
2022-09-12T16:23:48.001Z,54.5
2022-09-12T16:25:24.335Z,54.5
2022-09-12T16:27:00.659Z,54.5
2022-09-12T16:28:36.996Z,54.5
2022-09-12T16:30:13.320Z,55.5
2022-09-12T16:31:49.653Z,55
2022-09-12T16:33:25.987Z,55
2022-09-12T16:35:02.319Z,54.5
2022-09-12T16:36:38.645Z,55
2022-09-12T16:38:15.017Z,55
2022-09-12T16:39:51.310Z,55.5
2022-09-12T16:41:27.666Z,55.5
2022-09-12T16:43:03.969Z,55
2022-09-12T16:44:40.298Z,56
2022-09-12T16:46:15.641Z,55.5
2022-09-12T16:47:51.972Z,56
2022-09-12T16:49:28.435Z,56
2022-09-12T16:51:04.642Z,56.5
2022-09-12T16:52:40.964Z,56.5
2022-09-12T16:54:17.293Z,56.5
2022-09-12T16:55:53.630Z,56.5
2022-09-12T16:57:29.953Z,57
2022-09-12T16:59:06.302Z,56.5
2022-09-12T17:00:42.626Z,56.5
2022-09-12T17:02:18.961Z,57.5
2022-09-12T17:03:55.307Z,58
2022-09-12T17:05:31.617Z,58
2022-09-12T17:07:06.972Z,57.5
2022-09-12T17:08:42.318Z,57
2022-09-12T17:10:18.673Z,56.5
2022-09-12T17:11:55.039Z,57
2022-09-12T17:13:31.314Z,57
2022-09-12T17:15:06.704Z,57.5
2022-09-12T17:16:43.110Z,58
2022-09-12T17:18:18.351Z,58
2022-09-12T17:19:54.733Z,58
2022-09-12T17:21:31.009Z,58
2022-09-12T17:23:07.349Z,58
2022-09-12T17:24:43.694Z,58.5
2022-09-12T17:26:20.001Z,58.5
2022-09-12T17:27:56.355Z,59
2022-09-12T17:29:32.661Z,58.5
2022-09-12T17:31:09.009Z,59.5
2022-09-12T17:32:45.324Z,59
2022-09-12T17:34:21.669Z,59
2022-09-12T17:35:57.986Z,58
2022-09-12T17:37:34.337Z,58.5
2022-09-12T17:39:09.661Z,58.5
2022-09-12T17:40:46.014Z,58.5
2022-09-12T17:42:22.331Z,58.5
2022-09-12T17:43:58.659Z,58.5
2022-09-12T17:45:34.989Z,58.5
2022-09-12T17:47:11.319Z,58.5
2022-09-12T17:48:47.654Z,59
2022-09-12T17:50:23.984Z,59.5
2022-09-12T17:52:00.322Z,59.5
2022-09-12T17:53:36.648Z,59
2022-09-12T17:55:12.978Z,59
2022-09-12T17:56:49.302Z,59
2022-09-12T17:58:25.637Z,59
2022-09-12T18:00:01.967Z,59.5
2022-09-12T18:01:38.300Z,59.5
2022-09-12T18:03:13.685Z,59.5
2022-09-12T18:04:50.002Z,59.5
2022-09-12T18:06:26.321Z,60
2022-09-12T18:08:02.650Z,60.5
2022-09-12T18:09:38.971Z,60.5
2022-09-12T18:11:15.348Z,60
2022-09-12T18:12:51.630Z,59.5
2022-09-12T18:14:27.976Z,60
2022-09-12T18:16:04.315Z,59.5
2022-09-12T18:17:40.617Z,59.5
2022-09-12T18:19:16.983Z,59
2022-09-12T18:20:53.313Z,59
2022-09-12T18:22:28.654Z,59
2022-09-12T18:24:03.985Z,59
2022-09-12T18:25:40.317Z,59
2022-09-12T18:27:15.674Z,59
2022-09-12T18:28:52.009Z,59
2022-09-12T18:30:27.354Z,59.5
2022-09-12T18:32:03.747Z,59
2022-09-12T18:33:40.029Z,59.5
2022-09-12T18:35:16.342Z,60
2022-09-12T18:36:52.679Z,60
2022-09-12T18:38:29.073Z,61
2022-09-12T18:40:05.339Z,61
2022-09-12T18:41:41.714Z,62
2022-09-12T18:43:18.025Z,61
2022-09-12T18:44:54.330Z,62
2022-09-12T18:46:30.654Z,62
2022-09-12T18:48:07.021Z,61.5
2022-09-12T18:49:43.368Z,62
2022-09-12T18:51:18.703Z,61.5
2022-09-12T18:52:54.999Z,61.5
2022-09-12T18:54:31.365Z,62.5
2022-09-12T18:56:07.675Z,61.5
2022-09-12T18:57:43.989Z,61
2022-09-12T18:59:20.321Z,61
2022-09-12T19:00:55.693Z,60.5
2022-09-12T19:02:31.052Z,60.5
2022-09-12T19:04:07.392Z,60.5
2022-09-12T19:05:43.794Z,61
2022-09-12T19:07:20.020Z,61
2022-09-12T19:08:56.344Z,61
2022-09-12T19:10:32.675Z,61.5
2022-09-12T19:12:09.000Z,61.5
2022-09-12T19:13:45.358Z,61.5
2022-09-12T19:15:20.693Z,62
2022-09-12T19:16:57.042Z,62
2022-09-12T19:18:32.399Z,62.5
2022-09-12T19:20:08.744Z,62.5
2022-09-12T19:21:45.084Z,63
2022-09-12T19:23:21.366Z,63.5
2022-09-12T19:24:57.703Z,63.5
2022-09-12T19:26:34.030Z,63.5
2022-09-12T19:28:10.357Z,64
2022-09-12T19:29:46.695Z,64.5
2022-09-12T19:31:23.017Z,64.5
2022-09-12T19:32:59.365Z,64.5
2022-09-12T19:34:35.683Z,64
2022-09-12T19:36:12.025Z,64
2022-09-12T19:37:48.345Z,64
2022-09-12T19:39:23.729Z,64
2022-09-12T19:41:00.020Z,64
2022-09-12T19:42:36.360Z,64.5
2022-09-12T19:44:12.707Z,64.5
2022-09-12T19:45:49.015Z,64.5
2022-09-12T19:47:25.341Z,64.5
2022-09-12T19:49:01.687Z,64.5
2022-09-12T19:50:38.009Z,65
2022-09-12T19:52:14.340Z,64.5
2022-09-12T19:53:50.669Z,65
2022-09-12T19:55:26.996Z,65
2022-09-12T19:57:03.325Z,65
2022-09-12T19:58:39.667Z,65
2022-09-12T20:00:15.008Z,65.5
2022-09-12T20:01:51.332Z,65
2022-09-12T20:03:27.667Z,65
2022-09-12T20:05:03.997Z,64.5
2022-09-12T20:06:40.333Z,65
2022-09-12T20:08:16.657Z,65
2022-09-12T20:09:52.987Z,64.5
2022-09-12T20:11:29.319Z,64.5
2022-09-12T20:13:05.655Z,64.5
2022-09-12T20:14:42.070Z,64.5
2022-09-12T20:16:18.315Z,64.5
2022-09-12T20:17:54.672Z,64.5
2022-09-12T20:19:30.973Z,64.5
2022-09-12T20:21:06.320Z,64
2022-09-12T20:22:42.658Z,64.5
2022-09-12T20:24:19.023Z,64.5
2022-09-12T20:25:55.319Z,64
2022-09-12T20:27:31.659Z,64.5
2022-09-12T20:29:07.987Z,64.5
2022-09-12T20:30:44.303Z,64.5
2022-09-12T20:32:20.641Z,64.5
2022-09-12T20:33:56.978Z,64
2022-09-12T20:35:33.294Z,64.5
2022-09-12T20:37:09.627Z,64.5
2022-09-12T20:38:45.958Z,64
2022-09-12T20:40:22.391Z,64.5
2022-09-12T20:41:58.629Z,64.5
2022-09-12T20:43:34.019Z,64.5
2022-09-12T20:45:10.298Z,64.5
2022-09-12T20:46:46.634Z,64
2022-09-12T20:48:22.961Z,64.5
2022-09-12T20:49:59.368Z,64.5
2022-09-12T20:51:35.714Z,64.5
2022-09-12T20:53:11.967Z,64.5
2022-09-12T20:54:48.292Z,65
2022-09-12T20:56:24.654Z,65
2022-09-12T20:58:00.950Z,65
2022-09-12T20:59:37.287Z,65.5
2022-09-12T21:01:13.753Z,65.5
2022-09-12T21:02:49.937Z,65.5
2022-09-12T21:04:25.296Z,65.5
2022-09-12T21:06:01.673Z,65.5
2022-09-12T21:07:38.000Z,65.5
2022-09-12T21:09:14.349Z,65.5
2022-09-12T21:10:50.712Z,66
2022-09-12T21:12:26.943Z,66
2022-09-12T21:14:03.322Z,66.5
2022-09-12T21:15:39.665Z,66
2022-09-12T21:17:15.978Z,66
2022-09-12T21:18:52.322Z,66
2022-09-12T21:20:28.620Z,66.5
2022-09-12T21:22:04.935Z,66.5
2022-09-12T21:23:40.308Z,66.5
2022-09-12T21:25:16.635Z,67.5
2022-09-12T21:26:52.938Z,67
2022-09-12T21:28:29.279Z,67
2022-09-12T21:30:05.605Z,67
2022-09-12T21:31:41.927Z,66.5
2022-09-12T21:33:18.265Z,66
2022-09-12T21:34:54.595Z,66
2022-09-12T21:36:30.937Z,66
2022-09-12T21:38:07.258Z,66
2022-09-12T21:39:43.604Z,66
2022-09-12T21:41:19.916Z,66
2022-09-12T21:42:56.251Z,66
2022-09-12T21:44:31.610Z,66
2022-09-12T21:46:07.931Z,66
2022-09-12T21:47:44.262Z,66
2022-09-12T21:49:20.594Z,66
2022-09-12T21:50:56.986Z,66
2022-09-12T21:52:33.322Z,66
2022-09-12T21:54:09.602Z,66